Time;durP1;ratioP1;P1;durP2;ratioP2;P2;SDS_P1;SDS_P2;PMS_P1;PMS_P2;Temp;Humidity;BMP_temperature;BMP_pressure;BME280_temperature;BME280_humidity;BME280_pressure;Samples;Min_cycle;Max_cycle;Signal;HPM_P1;HPM_P2
2022/03/05 00:01:22;;;;;;;;;48.50;37.25;;;;;10.78;100.00;101363.06;5088212;27;44981;-76
2022/03/05 00:03:47;;;;;;;;;42.25;36.75;;;;;10.33;100.00;101283.19;5087818;27;44983;-76
2022/03/05 00:06:13;;;;;;;;;49.25;38.00;;;;;10.83;100.00;101369.13;5088536;27;45429;-77
2022/03/05 00:08:38;;;;;;;;;51.50;40.50;;;;;10.75;100.00;101355.97;5088601;27;45403;-76
2022/03/05 00:11:04;;;;;;;;;52.75;40.50;;;;;10.82;100.00;101375.53;5087872;28;45216;-77
2022/03/05 00:13:30;;;;;;;;;51.00;41.25;;;;;10.69;100.00;101356.31;5087912;27;45106;-78
2022/03/05 00:15:56;;;;;;;;;48.50;40.00;;;;;10.57;100.00;101332.56;5087847;27;44998;-77
2022/03/05 00:18:21;;;;;;;;;49.50;39.25;;;;;10.72;100.00;101374.31;5087773;27;45241;-77
2022/03/05 00:20:47;;;;;;;;;53.00;40.75;;;;;10.33;100.00;101289.50;5088031;27;45180;-78
2022/03/05 00:23:14;;;;;;;;;56.25;42.25;;;;;10.81;100.00;101376.50;5087839;27;45378;-77
2022/03/05 00:25:40;;;;;;;;;47.50;37.50;;;;;10.70;100.00;101359.94;5089035;27;45062;-79
2022/03/05 00:28:06;;;;;;;;;52.00;39.00;;;;;10.43;100.00;101314.31;5091254;27;45231;-77
2022/03/05 00:30:32;;;;;;;;;44.25;37.00;;;;;10.62;100.00;101347.63;5091565;27;45359;-77
2022/03/05 00:32:58;;;;;;;;;48.25;39.00;;;;;10.73;100.00;101359.75;5091420;27;46164;-77
2022/03/05 00:35:23;;;;;;;;;49.00;38.75;;;;;10.02;100.00;101238.72;5091733;27;45093;-76
2022/03/05 00:37:48;;;;;;;;;45.75;38.25;;;;;9.62;100.00;101164.06;5091120;27;45690;-81
2022/03/05 00:40:14;;;;;;;;;47.50;37.50;;;;;10.79;100.00;101387.44;5091545;27;45594;-77
2022/03/05 00:42:39;;;;;;;;;51.75;37.00;;;;;10.36;100.00;101319.22;5105533;27;45705;-77
2022/03/05 00:45:05;;;;;;;;;51.75;40.00;;;;;10.53;100.00;101325.53;5073276;28;45173;-77
2022/03/05 00:47:32;;;;;;;;;45.50;36.00;;;;;10.27;100.00;101281.72;5091306;27;45265;-77
2022/03/05 00:49:58;;;;;;;;;55.50;43.00;;;;;10.24;100.00;101284.63;5101318;27;45139;-76
2022/03/05 00:52:23;;;;;;;;;45.25;36.00;;;;;10.62;100.00;101344.91;5111662;27;45542;-78
2022/03/05 00:54:49;;;;;;;;;45.50;38.75;;;;;10.75;100.00;101369.56;5111896;27;45590;-76
2022/03/05 00:57:14;;;;;;;;;51.00;38.00;;;;;10.73;100.00;101365.19;5124222;27;45101;-76
2022/03/05 00:59:40;;;;;;;;;50.50;37.75;;;;;10.36;100.00;101299.34;5120092;27;45125;-77
2022/03/05 01:02:06;;;;;;;;;49.00;40.00;;;;;10.73;100.00;101362.47;5111939;27;46216;-77
2022/03/05 01:04:32;;;;;;;;;53.00;41.25;;;;;10.72;100.00;101364.31;5111795;27;45122;-77
2022/03/05 01:06:57;;;;;;;;;51.00;42.25;;;;;10.73;100.00;101365.19;5112247;27;45156;-77
2022/03/05 01:09:22;;;;;;;;;49.25;39.25;;;;;10.71;100.00;101368.00;5112806;27;45001;-76
2022/03/05 01:11:48;;;;;;;;;55.25;42.00;;;;;10.61;100.00;101345.91;5112872;27;45244;-78
2022/03/05 01:14:13;;;;;;;;;44.25;35.50;;;;;9.91;100.00;101229.44;5112585;27;45191;-77
2022/03/05 01:16:38;;;;;;;;;55.50;39.00;;;;;10.49;100.00;101332.09;5111581;27;45187;-77
2022/03/05 01:19:04;;;;;;;;;45.25;39.25;;;;;10.36;100.00;101318.38;5109493;27;45377;-77
2022/03/05 01:21:29;;;;;;;;;50.50;41.00;;;;;10.31;100.00;101307.75;5112260;27;45067;-77
2022/03/05 01:23:55;;;;;;;;;38.00;32.50;;;;;10.67;100.00;101362.81;5111545;27;44931;-76
2022/03/05 01:26:21;;;;;;;;;49.00;37.00;;;;;10.67;100.00;101369.13;5110984;27;45117;-77
2022/03/05 01:28:46;;;;;;;;;53.00;40.00;;;;;10.60;100.00;101348.72;5111922;27;45056;-77
2022/03/05 01:31:11;;;;;;;;;51.50;39.75;;;;;10.48;100.00;101331.25;5110955;27;45744;-77
2022/03/05 01:33:37;;;;;;;;;47.25;35.75;;;;;10.57;100.00;101349.75;5111340;27;45048;-77
2022/03/05 01:36:03;;;;;;;;;43.00;36.25;;;;;10.11;100.00;101261.78;5111510;27;45191;-77
2022/03/05 01:38:28;;;;;;;;;44.75;36.75;;;;;9.19;100.00;101128.50;5109491;27;45446;-77
2022/03/05 01:40:53;;;;;;;;;47.50;38.25;;;;;10.22;100.00;101278.34;5110242;27;45544;-77
2022/03/05 01:43:19;;;;;;;;;39.00;35.25;;;;;10.54;100.00;101332.72;5111270;27;45092;-77
2022/03/05 01:45:44;;;;;;;;;48.50;39.00;;;;;10.69;100.00;101355.44;5111050;27;45218;-76
2022/03/05 01:48:09;;;;;;;;;51.00;39.75;;;;;10.45;100.00;101312.41;5110371;27;45433;-77
2022/03/05 01:50:35;;;;;;;;;47.50;39.50;;;;;10.68;100.00;101364.56;5126407;27;45626;-77
2022/03/05 01:53:00;;;;;;;;;45.00;36.00;;;;;10.65;100.00;101352.91;5131799;27;45057;-77
2022/03/05 01:55:26;;;;;;;;;52.00;40.25;;;;;10.62;100.00;101353.06;5134132;27;45173;-76
2022/03/05 01:57:52;;;;;;;;;42.00;34.75;;;;;9.64;100.00;101211.03;5116823;27;44742;-77
2022/03/05 02:00:18;;;;;;;;;48.25;36.00;;;;;10.47;100.00;101345.81;5120116;27;45176;-77
2022/03/05 02:02:45;;;;;;;;;48.00;38.75;;;;;10.52;100.00;101362.72;5111184;27;45432;-77
2022/03/05 02:05:11;;;;;;;;;48.75;36.25;;;;;10.17;100.00;101298.59;5110901;27;45001;-77
2022/03/05 02:07:37;;;;;;;;;37.75;32.75;;;;;10.54;100.00;101359.91;5118951;27;45055;-77
2022/03/05 02:10:08;;;;;;;;;41.75;34.25;;;;;10.54;100.00;101362.63;5130600;27;46013;-77
2022/03/05 02:12:35;;;;;;;;;41.75;34.75;;;;;10.54;100.00;101366.25;5131084;27;45069;-77
2022/03/05 02:15:00;;;;;;;;;40.25;35.75;;;;;9.21;100.00;101136.53;5117209;27;45002;-77
2022/03/05 02:17:27;;;;;;;;;45.75;35.25;;;;;10.48;100.00;101357.56;5131278;27;45287;-77
2022/03/05 02:19:56;;;;;;;;;41.25;35.00;;;;;9.68;100.00;101211.72;5129495;27;45377;-76
2022/03/05 02:22:22;;;;;;;;;51.00;39.50;;;;;10.49;100.00;101356.56;5131095;27;45185;-77
2022/03/05 02:24:50;;;;;;;;;43.50;36.50;;;;;10.48;100.00;101352.97;5130515;27;45285;-77
2022/03/05 02:27:16;;;;;;;;;43.50;34.25;;;;;10.48;100.00;101355.69;5130681;27;45023;-77
2022/03/05 02:29:41;;;;;;;;;43.50;35.25;;;;;10.48;100.00;101350.28;5127076;27;46069;-76
2022/03/05 02:32:07;;;;;;;;;48.25;37.25;;;;;9.16;100.00;101139.50;5110314;27;45201;-77
2022/03/05 02:34:33;;;;;;;;;46.25;37.50;;;;;10.47;100.00;101351.25;5110733;27;45259;-76
2022/03/05 02:36:58;;;;;;;;;37.00;33.75;;;;;10.48;100.00;101352.97;5109891;27;45215;-77
2022/03/05 02:39:24;;;;;;;;;43.75;36.25;;;;;10.33;100.00;101323.97;5109864;27;45171;-77
2022/03/05 02:41:54;;;;;;;;;38.50;35.00;;;;;10.46;100.00;101354.94;5110465;27;44971;-77
2022/03/05 02:44:20;;;;;;;;;41.50;36.50;;;;;10.44;100.00;101348.72;5109760;27;45084;-76
2022/03/05 02:46:46;;;;;;;;;39.75;34.00;;;;;10.44;100.00;101342.38;5110583;27;45307;-77
2022/03/05 02:49:11;;;;;;;;;30.75;26.75;;;;;10.30;100.00;101329.59;5123364;27;45443;-77
2022/03/05 02:51:37;;;;;;;;;40.25;33.00;;;;;10.41;100.00;101345.28;5109901;27;45131;-77
2022/03/05 02:54:03;;;;;;;;;32.75;31.50;;;;;10.31;100.00;101343.09;5108780;27;45169;-77
2022/03/05 02:56:28;;;;;;;;;33.25;30.75;;;;;10.38;100.00;101336.31;5102650;27;45013;-76
2022/03/05 02:58:54;;;;;;;;;38.75;34.50;;;;;10.24;100.00;101305.44;5091898;27;46004;-77
2022/03/05 03:01:19;;;;;;;;;39.00;33.25;;;;;9.43;100.00;101169.69;5089639;27;45082;-77
2022/03/05 03:03:45;;;;;;;;;38.25;35.00;;;;;10.38;100.00;101328.16;5089444;27;45138;-77
2022/03/05 03:06:10;;;;;;;;;33.75;29.25;;;;;10.38;100.00;101338.16;5089287;27;45114;-77
2022/03/05 03:08:35;;;;;;;;;39.25;34.00;;;;;10.38;100.00;101330.88;5089217;27;45724;-77
2022/03/05 03:11:01;;;;;;;;;41.25;35.00;;;;;9.84;100.00;101239.78;5089261;27;45179;-78
2022/03/05 03:13:26;;;;;;;;;45.50;36.50;;;;;9.85;100.00;101241.53;5091190;27;45168;-79
2022/03/05 03:15:52;;;;;;;;;36.25;32.75;;;;;10.37;100.00;101334.56;5089199;27;44982;-80
2022/03/05 03:18:18;;;;;;;;;34.75;30.25;;;;;9.82;100.00;101255.25;5088550;27;45131;-80
2022/03/05 03:20:44;;;;;;;;;40.75;34.50;;;;;10.36;100.00;101334.66;5088764;27;45032;-81
2022/03/05 03:23:09;;;;;;;;;32.25;28.75;;;;;10.36;100.00;101332.81;5088975;27;45014;-78
2022/03/05 03:25:35;;;;;;;;;37.50;35.25;;;;;9.93;100.00;101252.81;5088570;27;45226;-78
2022/03/05 03:28:00;;;;;;;;;34.50;28.75;;;;;10.36;100.00;101330.09;5088524;27;45186;-81
2022/03/05 03:30:26;;;;;;;;;35.50;33.50;;;;;10.36;100.00;101329.22;5088898;27;44956;-79
2022/03/05 03:32:51;;;;;;;;;40.75;35.75;;;;;10.32;100.00;101330.38;5088669;27;45027;-76
2022/03/05 03:35:17;;;;;;;;;44.50;35.50;;;;;9.28;100.00;101151.53;5089298;27;45308;-79
2022/03/05 03:37:44;;;;;;;;;41.50;34.25;;;;;10.31;100.00;101334.06;5088246;27;45064;-76
2022/03/05 03:40:11;;;;;;;;;43.25;35.25;;;;;10.29;100.00;101327.81;5087081;28;45245;-78
2022/03/05 03:42:37;;;;;;;;;42.50;31.00;;;;;10.08;100.00;101300.84;5088360;27;45202;-78
2022/03/05 03:45:04;;;;;;;;;44.75;34.00;;;;;10.23;100.00;101328.13;5088661;27;45096;-77
2022/03/05 03:47:30;;;;;;;;;34.75;32.25;;;;;9.99;100.00;101285.09;5088459;27;45554;-78
2022/03/05 03:49:56;;;;;;;;;44.25;36.25;;;;;10.23;100.00;101329.00;5098265;27;45140;-76
2022/03/05 03:52:21;;;;;;;;;40.75;36.50;;;;;10.24;100.00;101336.25;5108935;27;45247;-76
2022/03/05 03:54:48;;;;;;;;;38.75;34.25;;;;;9.68;100.00;101244.28;5109064;27;45379;-79
2022/03/05 03:57:13;;;;;;;;;40.50;35.00;;;;;9.76;100.00;101255.63;5121432;27;46284;-78
2022/03/05 03:59:39;;;;;;;;;30.00;24.50;;;;;10.03;100.00;101312.94;5116582;27;45039;-78
2022/03/05 04:02:05;;;;;;;;;40.25;33.25;;;;;9.66;100.00;101249.81;5109031;27;45301;-77
2022/03/05 04:04:31;;;;;;;;;41.75;36.00;;;;;10.00;100.00;101308.56;5109002;27;45080;-79
2022/03/05 04:09:41;;;;;;;;;38.75;34.75;;;;;9.91;100.00;101300.94;5108745;27;45263;-77
2022/03/05 04:12:07;;;;;;;;;35.50;29.00;;;;;9.40;100.00;101228.66;5108925;27;45435;-77
2022/03/05 04:14:32;;;;;;;;;42.00;36.50;;;;;10.05;100.00;101339.06;5109159;27;45078;-76
2022/03/05 04:16:58;;;;;;;;;47.25;36.00;;;;;9.13;100.00;101183.09;5108569;27;45311;-77
2022/03/05 04:19:23;;;;;;;;;42.00;34.25;;;;;9.78;100.00;101286.25;5108789;27;45192;-77
2022/03/05 04:21:48;;;;;;;;;43.00;34.25;;;;;9.17;100.00;101197.34;5109203;27;45218;-77
2022/03/05 04:24:14;;;;;;;;;45.25;34.75;;;;;9.95;100.00;101323.38;5108820;27;45335;-77
2022/03/05 04:26:39;;;;;;;;;37.00;29.25;;;;;9.73;100.00;101296.50;5108507;27;45477;-78
2022/03/05 04:29:05;;;;;;;;;41.75;36.00;;;;;9.87;100.00;101318.34;5120813;27;45165;-78
2022/03/05 04:31:30;;;;;;;;;44.25;36.50;;;;;9.95;100.00;101332.41;5105096;27;45105;-78
2022/03/05 04:33:56;;;;;;;;;47.75;36.25;;;;;10.01;100.00;101340.19;5108180;27;45086;-77
2022/03/05 04:36:22;;;;;;;;;42.25;30.50;;;;;8.99;100.00;101169.38;5108379;27;45443;-78
2022/03/05 04:38:48;;;;;;;;;40.00;36.75;;;;;9.70;100.00;101296.69;5108504;27;45109;-77
2022/03/05 04:41:13;;;;;;;;;44.75;36.50;;;;;9.70;100.00;101297.56;5108475;27;44984;-77
2022/03/05 04:43:39;;;;;;;;;46.50;38.75;;;;;9.92;100.00;101351.56;5109006;27;45624;-77
2022/03/05 04:46:04;;;;;;;;;44.00;37.00;;;;;9.89;100.00;101351.75;5108267;27;45411;-77
2022/03/05 04:48:29;;;;;;;;;44.50;37.75;;;;;9.81;100.00;101335.00;5108725;27;45271;-77
2022/03/05 04:50:55;;;;;;;;;41.75;37.00;;;;;9.34;100.00;101255.16;5126513;27;45227;-77
2022/03/05 04:53:21;;;;;;;;;38.50;33.25;;;;;9.75;100.00;101324.47;5127467;27;45188;-77
2022/03/05 04:55:50;;;;;;;;;40.00;35.50;;;;;9.89;100.00;101357.19;5128334;27;45744;-77
2022/03/05 04:58:16;;;;;;;;;43.75;35.25;;;;;9.53;100.00;101284.91;5128344;27;45124;-78
2022/03/05 05:00:41;;;;;;;;;41.25;37.00;;;;;9.89;100.00;101349.03;5108504;27;44998;-77
2022/03/05 05:03:06;;;;;;;;;33.25;30.00;;;;;9.60;100.00;101293.59;5108282;27;45198;-77
2022/03/05 05:05:32;;;;;;;;;39.00;34.50;;;;;9.83;100.00;101344.81;5107380;27;45120;-77
2022/03/05 05:07:57;;;;;;;;;42.75;36.00;;;;;9.66;100.00;101316.81;5119138;27;45065;-77
2022/03/05 05:10:23;;;;;;;;;39.00;33.50;;;;;9.44;100.00;101270.97;5111191;27;45265;-77
2022/03/05 05:12:48;;;;;;;;;45.25;34.50;;;;;9.90;100.00;101348.06;5111065;27;45008;-78
2022/03/05 05:15:13;;;;;;;;;41.75;36.00;;;;;9.40;100.00;101272.09;5111726;27;45077;-77
2022/03/05 05:17:39;;;;;;;;;40.50;34.00;;;;;9.82;100.00;101340.31;5111195;27;45138;-76
2022/03/05 05:20:06;;;;;;;;;35.75;34.00;;;;;9.53;100.00;101286.72;5111530;27;45179;-77
2022/03/05 05:22:32;;;;;;;;;41.25;36.25;;;;;9.90;100.00;101363.50;5092902;27;45139;-78
2022/03/05 05:24:59;;;;;;;;;40.75;35.00;;;;;9.61;100.00;101322.50;5111032;27;45234;-76
2022/03/05 05:27:25;;;;;;;;;41.00;35.50;;;;;9.88;100.00;101361.75;5092621;27;45138;-77
2022/03/05 05:29:50;;;;;;;;;40.50;36.25;;;;;9.16;100.00;101255.28;5111711;27;44968;-76
2022/03/05 05:32:16;;;;;;;;;48.50;35.75;;;;;9.52;100.00;101304.84;5111637;27;45316;-77
2022/03/05 05:34:42;;;;;;;;;36.75;32.00;;;;;9.81;100.00;101354.00;5111524;27;46261;-75
2022/03/05 05:37:08;;;;;;;;;41.50;37.50;;;;;9.89;100.00;101370.75;5110647;27;45111;-76
2022/03/05 05:39:33;;;;;;;;;47.50;36.25;;;;;9.88;100.00;101368.97;5111013;27;45383;-76
2022/03/05 05:41:58;;;;;;;;;31.50;28.25;;;;;9.19;100.00;101265.97;5109170;27;45382;-77
2022/03/05 05:44:24;;;;;;;;;47.75;34.00;;;;;9.88;100.00;101374.41;5111048;27;45609;-76
2022/03/05 05:46:49;;;;;;;;;39.75;35.00;;;;;9.84;100.00;101375.56;5111057;27;45156;-76
2022/03/05 05:49:14;;;;;;;;;41.00;34.25;;;;;9.23;100.00;101282.00;5114951;27;45260;-76
2022/03/05 05:51:40;;;;;;;;;41.25;34.00;;;;;9.50;100.00;101330.34;5131681;27;45172;-76
2022/03/05 05:54:05;;;;;;;;;39.75;34.75;;;;;9.77;100.00;101388.56;5131141;27;45652;-78
2022/03/05 05:56:31;;;;;;;;;45.50;38.00;;;;;9.64;100.00;101365.78;5130900;27;45174;-78
2022/03/05 05:58:56;;;;;;;;;46.25;38.00;;;;;9.10;100.00;101273.63;5106191;27;45278;-76
2022/03/05 06:01:23;;;;;;;;;43.00;36.75;;;;;9.13;100.00;101278.03;5111102;27;45030;-80
2022/03/05 06:03:49;;;;;;;;;39.25;35.00;;;;;9.49;100.00;101343.03;5110784;27;45723;-75
2022/03/05 06:06:15;;;;;;;;;42.50;35.75;;;;;9.73;100.00;101391.53;5110141;27;45075;-80
2022/03/05 06:08:40;;;;;;;;;44.75;36.50;;;;;9.66;100.00;101382.84;5110652;27;45064;-78
2022/03/05 06:11:06;;;;;;;;;43.00;36.00;;;;;9.68;100.00;101375.50;5110455;27;45139;-78
2022/03/05 06:13:32;;;;;;;;;42.50;32.50;;;;;9.75;100.00;101387.78;5110421;27;45935;-79
2022/03/05 06:15:57;;;;;;;;;44.75;36.25;;;;;9.49;100.00;101345.75;5110328;27;45135;-77
2022/03/05 06:18:22;;;;;;;;;45.75;38.00;;;;;9.67;100.00;101384.59;5110462;27;45600;-76
2022/03/05 06:20:48;;;;;;;;;42.50;36.25;;;;;9.67;100.00;101381.88;5117554;27;45018;-76
2022/03/05 06:23:14;;;;;;;;;39.25;32.75;;;;;9.70;100.00;101386.28;5097955;27;46153;-77
2022/03/05 06:25:39;;;;;;;;;44.00;36.00;;;;;9.07;100.00;101292.78;5111280;27;45202;-76
2022/03/05 06:28:05;;;;;;;;;44.50;36.50;;;;;9.45;100.00;101352.28;5130914;27;45081;-77
2022/03/05 06:30:31;;;;;;;;;45.75;36.25;;;;;9.56;100.00;101382.44;5131269;27;45153;-78
2022/03/05 06:32:56;;;;;;;;;40.00;35.25;;;;;9.64;100.00;101387.50;5131022;27;45721;-76
2022/03/05 06:35:21;;;;;;;;;46.25;36.00;;;;;9.46;100.00;101369.44;5130089;27;45126;-76
2022/03/05 06:37:47;;;;;;;;;44.25;37.50;;;;;9.09;100.00;101315.28;5131069;27;45209;-77
2022/03/05 06:40:12;;;;;;;;;41.25;34.75;;;;;9.63;100.00;101407.47;5131289;27;45154;-76
2022/03/05 06:42:40;;;;;;;;;41.00;36.25;;;;;9.55;100.00;101391.56;5130648;27;45500;-78
2022/03/05 06:45:08;;;;;;;;;39.25;34.25;;;;;9.64;100.00;101406.50;5131009;27;45380;-77
2022/03/05 06:47:33;;;;;;;;;43.75;35.25;;;;;8.56;100.00;101244.81;5130587;27;45068;-76
2022/03/05 06:49:59;;;;;;;;;44.00;35.25;;;;;9.52;100.00;101391.72;5121159;27;45185;-76
2022/03/05 06:52:24;;;;;;;;;44.00;34.50;;;;;9.64;100.00;101411.06;5109851;27;45131;-77
2022/03/05 06:54:50;;;;;;;;;36.75;33.75;;;;;9.35;100.00;101372.72;5110066;27;45359;-78
2022/03/05 06:57:15;;;;;;;;;39.75;33.50;;;;;9.04;100.00;101313.75;5097091;27;45369;-76
2022/03/05 06:59:41;;;;;;;;;42.25;36.00;;;;;9.32;100.00;101362.03;5091850;27;45358;-77
2022/03/05 07:02:07;;;;;;;;;45.75;38.00;;;;;8.63;100.00;101269.78;5089033;27;45787;-76
2022/03/05 07:04:32;;;;;;;;;40.50;32.00;;;;;9.43;100.00;101399.44;5089268;27;45141;-76
2022/03/05 07:06:58;;;;;;;;;42.00;34.75;;;;;9.43;100.00;101403.06;5070441;27;45685;-77
2022/03/05 07:09:23;;;;;;;;;38.75;36.25;;;;;9.58;100.00;101428.53;5088976;27;44975;-77
2022/03/05 07:11:48;;;;;;;;;41.00;35.75;;;;;9.20;100.00;101368.09;5089081;27;45657;-76
2022/03/05 07:14:13;;;;;;;;;46.00;36.75;;;;;9.58;100.00;101439.41;5089020;27;45021;-77
2022/03/05 07:16:39;;;;;;;;;37.50;34.75;;;;;9.41;100.00;101410.41;5089161;27;45187;-76
2022/03/05 07:19:04;;;;;;;;;43.25;36.25;;;;;7.56;100.00;101113.47;5088351;27;45105;-78
2022/03/05 07:21:30;;;;;;;;;45.00;39.25;;;;;9.56;100.00;101438.59;5088981;27;45052;-76
2022/03/05 07:23:56;;;;;;;;;42.00;35.25;;;;;9.52;100.00;101431.56;5089263;27;45260;-78
2022/03/05 07:26:21;;;;;;;;;52.75;39.75;;;;;9.44;100.00;101420.22;5087264;27;45180;-77
2022/03/05 07:28:47;;;;;;;;;44.00;36.50;;;;;9.51;100.00;101436.09;5087230;27;45247;-78
2022/03/05 07:31:12;;;;;;;;;51.75;40.00;;;;;9.11;100.00;101374.84;5099763;27;45398;-80
2022/03/05 07:33:38;;;;;;;;;51.50;39.50;;;;;9.42;100.00;101436.56;5083420;27;45488;-75
2022/03/05 07:36:04;;;;;;;;;47.50;40.25;;;;;8.96;100.00;101372.94;5101306;27;45191;-79
2022/03/05 07:38:30;;;;;;;;;48.25;40.75;;;;;8.65;100.00;101338.34;5091724;27;45436;-78
2022/03/05 07:40:56;;;;;;;;;52.75;41.25;;;;;9.41;100.00;101459.25;5101122;27;45381;-77
2022/03/05 07:43:21;;;;;;;;;44.00;37.25;;;;;9.38;100.00;101464.84;5087994;27;45216;-77
2022/03/05 07:45:46;;;;;;;;;49.00;40.25;;;;;8.92;100.00;101374.03;5088757;27;45334;-78
2022/03/05 07:48:12;;;;;;;;;52.75;40.75;;;;;9.42;100.00;101477.28;5071454;28;45291;-78
2022/03/05 07:50:37;;;;;;;;;52.25;43.00;;;;;9.32;100.00;101457.88;5092196;27;45989;-78
2022/03/05 07:53:03;;;;;;;;;45.00;38.00;;;;;8.46;100.00;101306.72;5088464;27;45062;-78
2022/03/05 07:55:28;;;;;;;;;53.50;42.75;;;;;8.93;100.00;101400.22;5095685;27;44985;-77
2022/03/05 07:57:53;;;;;;;;;47.00;38.00;;;;;9.40;100.00;101479.19;5100830;27;45246;-77
2022/03/05 08:00:19;;;;;;;;;46.50;39.00;;;;;8.73;100.00;101352.41;5092011;27;46189;-78
2022/03/05 08:02:44;;;;;;;;;38.50;35.50;;;;;9.25;100.00;101440.16;5108599;27;45144;-78
2022/03/05 08:05:10;;;;;;;;;44.75;37.00;;;;;8.68;100.00;101340.91;5108848;27;44958;-78
2022/03/05 08:07:35;;;;;;;;;48.50;41.75;;;;;9.39;100.00;101471.16;5108853;27;45096;-78
2022/03/05 08:10:01;;;;;;;;;51.00;41.00;;;;;9.15;100.00;101435.28;5108525;27;45359;-80
2022/03/05 08:12:27;;;;;;;;;53.50;41.00;;;;;9.38;100.00;101480.22;5097308;27;45177;-80
2022/03/05 08:14:52;;;;;;;;;44.50;37.75;;;;;9.35;100.00;101476.72;5093978;27;45247;-79
2022/03/05 08:17:17;;;;;;;;;46.75;37.00;;;;;9.39;100.00;101480.16;5088219;27;45125;-78
2022/03/05 08:19:43;;;;;;;;;47.25;38.50;;;;;9.36;100.00;101489.31;5088035;28;45643;-79
2022/03/05 08:22:08;;;;;;;;;40.75;33.00;;;;;9.38;100.00;101480.22;5087845;27;45070;-79
2022/03/05 08:24:33;;;;;;;;;43.50;34.75;;;;;8.17;100.00;101272.03;5088731;27;45735;-79
2022/03/05 08:26:59;;;;;;;;;54.00;41.00;;;;;9.40;100.00;101472.91;5087824;27;45171;-78
2022/03/05 08:29:24;;;;;;;;;49.25;40.75;;;;;7.71;100.00;101176.81;5098180;27;45159;-78
2022/03/05 08:31:50;;;;;;;;;51.25;37.50;;;;;9.43;100.00;101467.31;5077204;27;45215;-79
2022/03/05 08:34:16;;;;;;;;;54.00;41.00;;;;;8.09;100.00;101261.56;5095291;27;45293;-79
2022/03/05 08:36:41;;;;;;;;;43.50;37.00;;;;;7.63;100.00;101158.22;5092938;27;45174;-79
2022/03/05 08:39:07;;;;;;;;;44.25;38.75;;;;;9.49;100.00;101473.31;5087365;27;46145;-79
2022/03/05 08:41:32;;;;;;;;;46.75;36.50;;;;;9.12;100.00;101411.00;5101361;27;45436;-79
2022/03/05 08:43:58;;;;;;;;;51.00;41.25;;;;;9.21;100.00;101438.53;5109104;27;45006;-82
2022/03/05 08:46:23;;;;;;;;;43.50;37.50;;;;;9.51;100.00;101476.81;5110894;27;44766;-79
2022/03/05 08:48:49;;;;;;;;;53.50;40.75;;;;;9.54;100.00;101481.22;5104889;27;45439;-79
2022/03/05 08:51:14;;;;;;;;;42.75;36.75;;;;;8.83;100.00;101354.56;5093483;27;45132;-79
2022/03/05 08:53:40;;;;;;;;;53.00;39.25;;;;;9.56;100.00;101479.31;5112115;27;45239;-79
2022/03/05 08:56:05;;;;;;;;;49.00;38.00;;;;;9.57;100.00;101487.34;5114600;27;45163;-78
2022/03/05 08:58:30;;;;;;;;;50.00;38.00;;;;;9.52;100.00;101466.84;5129514;27;45966;-79
2022/03/05 09:00:59;;;;;;;;;47.00;38.50;;;;;9.61;100.00;101493.53;5120726;27;45030;-79
2022/03/05 09:03:25;;;;;;;;;35.50;32.50;;;;;9.61;100.00;101480.81;5123118;27;45124;-81
2022/03/05 09:05:50;;;;;;;;;48.75;38.25;;;;;7.92;100.00;101191.13;5113186;27;45345;-78
2022/03/05 09:08:16;;;;;;;;;41.25;37.00;;;;;9.50;100.00;101447.91;5132548;27;45699;-79
2022/03/05 09:10:41;;;;;;;;;54.00;42.00;;;;;9.55;100.00;101456.72;5132390;27;45168;-78
2022/03/05 09:13:10;;;;;;;;;36.50;31.25;;;;;9.16;100.00;101383.63;5113677;27;45212;-79
2022/03/05 09:15:35;;;;;;;;;52.75;41.25;;;;;7.91;100.00;101175.84;5132115;27;45027;-79
2022/03/05 09:18:00;;;;;;;;;55.00;42.00;;;;;9.26;100.00;101393.06;5132789;27;45517;-79
2022/03/05 09:20:26;;;;;;;;;48.00;38.50;;;;;8.80;100.00;101308.63;5110732;27;45409;-79
2022/03/05 09:22:53;;;;;;;;;43.25;37.25;;;;;7.89;100.00;101159.66;5122703;27;45025;-79
2022/03/05 09:25:18;;;;;;;;;52.00;40.25;;;;;9.42;100.00;101406.72;5111221;27;45099;-78
2022/03/05 09:27:45;;;;;;;;;48.25;41.50;;;;;9.55;100.00;101437.72;5110877;27;45143;-79
2022/03/05 09:30:11;;;;;;;;;44.50;38.00;;;;;9.61;100.00;101445.53;5111118;27;45164;-80
2022/03/05 09:32:36;;;;;;;;;48.50;37.75;;;;;9.85;100.00;101491.38;5092805;27;45080;-81
2022/03/05 09:35:03;;;;;;;;;43.75;38.00;;;;;9.85;100.00;101473.25;5111474;27;45009;-81
2022/03/05 09:37:30;;;;;;;;;44.50;36.75;;;;;9.87;100.00;101479.47;5124900;27;45353;-79
2022/03/05 09:39:56;;;;;;;;;50.75;39.50;;;;;9.45;100.00;101398.44;5131356;27;44997;-83
2022/03/05 09:42:22;;;;;;;;;52.75;41.25;;;;;8.80;100.00;101289.66;5132073;27;45040;-79
2022/03/05 09:44:48;;;;;;;;;47.50;38.25;;;;;8.93;100.00;101300.75;5113155;27;45410;-81
2022/03/05 09:47:14;;;;;;;;;44.50;36.75;;;;;8.77;100.00;101284.41;5131244;27;46109;-79
2022/03/05 09:49:40;;;;;;;;;45.50;36.75;;;;;8.94;100.00;101313.34;5124585;27;45268;-79
2022/03/05 09:52:07;;;;;;;;;57.75;42.00;;;;;9.83;100.00;101445.31;5114829;27;45136;-79
2022/03/05 09:54:32;;;;;;;;;57.50;45.50;;;;;8.49;100.00;101208.16;5119072;27;44965;-79
2022/03/05 09:56:58;;;;;;;;;51.75;41.50;;;;;8.71;100.00;101252.16;5099663;27;45140;-76
2022/03/05 09:59:23;;;;;;;;;50.25;40.00;;;;;8.27;100.00;101168.56;5073439;28;45802;-78
2022/03/05 10:01:50;;;;;;;;;47.25;39.75;;;;;9.64;100.00;101395.63;5090357;27;45004;-77
2022/03/05 10:04:24;;;;;;;;;51.50;41.50;;;;;10.10;100.00;101478.25;5090573;27;44977;-79
2022/03/05 10:07:15;;;;;;;;;47.50;38.50;;;;;10.08;100.00;101476.56;5085455;27;46922;-78
2022/03/05 10:09:42;;;;;;;;;56.00;42.25;;;;;10.09;100.00;101478.34;5090030;27;45245;-78
2022/03/05 10:12:27;;;;;;;;;53.25;34.75;;;;;10.10;100.00;101472.81;5107662;27;45500;-77
2022/03/05 10:15:13;;;;;;;;;53.25;39.75;;;;;9.68;100.00;101415.34;5110716;27;45049;-77
2022/03/05 10:17:48;;;;;;;;;53.50;42.50;;;;;10.12;100.00;101476.31;5099293;27;45696;-78
2022/03/05 10:20:14;;;;;;;;;51.75;40.25;;;;;9.24;100.00;101329.88;5090968;27;45218;-78
2022/03/05 10:22:53;;;;;;;;;55.75;43.75;;;;;8.94;100.00;101280.81;5098732;27;45157;-79
2022/03/05 10:25:31;;;;;;;;;51.25;40.25;;;;;10.18;100.00;101480.56;5103651;27;45209;-77
2022/03/05 10:28:08;;;;;;;;;45.75;40.75;;;;;10.22;100.00;101470.41;5075118;27;47409;-78
2022/03/05 10:30:36;;;;;;;;;51.00;39.75;;;;;8.84;100.00;101236.16;5091158;27;45039;-77
2022/03/05 10:33:03;;;;;;;;;45.75;35.75;;;;;10.27;100.00;101466.50;5104243;27;45227;-78
2022/03/05 10:35:28;;;;;;;;;43.00;38.00;;;;;9.85;100.00;101389.06;5100341;27;45092;-78
2022/03/05 10:37:54;;;;;;;;;48.25;38.75;;;;;10.16;100.00;101443.56;5106418;27;45211;-78
2022/03/05 10:40:31;;;;;;;;;45.75;39.25;;;;;10.33;100.00;101470.72;5090456;27;45172;-78
2022/03/05 10:43:02;;;;;;;;;63.00;44.00;;;;;8.99;100.00;101231.75;5100397;27;45057;-78
2022/03/05 10:45:29;;;;;;;;;52.25;40.25;;;;;9.68;100.00;101350.19;5072121;27;45309;-77
2022/03/05 10:47:55;;;;;;;;;49.50;41.00;;;;;10.42;100.00;101463.91;5109302;27;45720;-77
2022/03/05 10:50:29;;;;;;;;;54.25;41.50;;;;;10.05;100.00;101398.84;5082391;27;45230;-76
2022/03/05 10:53:01;;;;;;;;;57.75;42.50;;;;;10.38;100.00;101455.03;5097642;27;45570;-76
2022/03/05 10:55:29;;;;;;;;;49.25;39.50;;;;;10.16;100.00;101409.13;5108859;27;45067;-77
2022/03/05 10:57:57;;;;;;;;;56.25;45.00;;;;;10.23;100.00;101415.09;5109704;27;45150;-78
2022/03/05 11:00:22;;;;;;;;;56.75;45.50;;;;;10.24;100.00;101406.00;5116758;27;45248;-79
2022/03/05 11:02:50;;;;;;;;;50.25;39.00;;;;;9.51;100.00;101286.81;5110558;27;45260;-78
2022/03/05 11:05:18;;;;;;;;;51.25;41.00;;;;;10.24;100.00;101400.56;5119779;27;45250;-79